sensor_id;sensor_type;location;lat;lon;timestamp;temperature;humidity
22623;DHT22;11478;51.094;7.030;2023-09-19T00:00:26;15.00;99.90
22623;DHT22;11478;51.094;7.030;2023-09-19T00:02:57;15.00;99.90
22623;DHT22;11478;51.094;7.030;2023-09-19T00:05:25;15.00;99.90
22623;DHT22;11478;51.094;7.030;2023-09-19T00:07:55;15.00;99.90
22623;DHT22;11478;51.094;7.030;2023-09-19T00:10:22;15.00;99.90
22623;DHT22;11478;51.094;7.030;2023-09-19T00:12:58;15.00;99.90
22623;DHT22;11478;51.094;7.030;2023-09-19T00:15:28;15.00;99.90
22623;DHT22;11478;51.094;7.030;2023-09-19T00:18:02;14.90;99.90
22623;DHT22;11478;51.094;7.030;2023-09-19T00:20:31;14.90;99.90
22623;DHT22;11478;51.094;7.030;2023-09-19T00:22:57;14.90;99.90
22623;DHT22;11478;51.094;7.030;2023-09-19T00:25:30;14.90;99.90
22623;DHT22;11478;51.094;7.030;2023-09-19T00:28:05;14.90;99.90
22623;DHT22;11478;51.094;7.030;2023-09-19T00:30:33;14.90;99.90
22623;DHT22;11478;51.094;7.030;2023-09-19T00:33:00;14.90;99.90
22623;DHT22;11478;51.094;7.030;2023-09-19T00:35:27;14.80;99.90
22623;DHT22;11478;51.094;7.030;2023-09-19T00:37:55;14.80;99.90
22623;DHT22;11478;51.094;7.030;2023-09-19T00:40:21;14.80;99.90
22623;DHT22;11478;51.094;7.030;2023-09-19T00:42:48;14.80;99.90
22623;DHT22;11478;51.094;7.030;2023-09-19T00:45:17;14.70;99.90
22623;DHT22;11478;51.094;7.030;2023-09-19T00:47:45;14.70;99.90
22623;DHT22;11478;51.094;7.030;2023-09-19T00:50:13;14.70;99.90
22623;DHT22;11478;51.094;7.030;2023-09-19T00:52:42;14.70;99.90
22623;DHT22;11478;51.094;7.030;2023-09-19T00:55:09;14.70;99.90
22623;DHT22;11478;51.094;7.030;2023-09-19T00:57:36;14.70;99.90
22623;DHT22;11478;51.094;7.030;2023-09-19T01:00:06;14.70;99.90
22623;DHT22;11478;51.094;7.030;2023-09-19T01:02:34;14.70;99.90
22623;DHT22;11478;51.094;7.030;2023-09-19T01:05:00;14.80;99.90
22623;DHT22;11478;51.094;7.030;2023-09-19T01:07:30;14.80;99.90
22623;DHT22;11478;51.094;7.030;2023-09-19T01:10:03;14.80;99.90
22623;DHT22;11478;51.094;7.030;2023-09-19T01:18:08;14.70;99.90
22623;DHT22;11478;51.094;7.030;2023-09-19T01:31:37;14.70;99.90
22623;DHT22;11478;51.094;7.030;2023-09-19T01:34:08;14.70;99.90
22623;DHT22;11478;51.094;7.030;2023-09-19T01:36:37;14.70;99.90
22623;DHT22;11478;51.094;7.030;2023-09-19T01:39:14;14.70;99.90
22623;DHT22;11478;51.094;7.030;2023-09-19T01:42:15;14.70;99.90
22623;DHT22;11478;51.094;7.030;2023-09-19T01:52:25;14.70;99.90
22623;DHT22;11478;51.094;7.030;2023-09-19T01:54:56;14.70;99.90
22623;DHT22;11478;51.094;7.030;2023-09-19T01:57:40;14.70;99.90
22623;DHT22;11478;51.094;7.030;2023-09-19T02:00:10;14.70;99.90
22623;DHT22;11478;51.094;7.030;2023-09-19T02:02:47;14.70;99.90
22623;DHT22;11478;51.094;7.030;2023-09-19T02:05:13;14.70;99.90
22623;DHT22;11478;51.094;7.030;2023-09-19T02:07:50;14.70;99.90
22623;DHT22;11478;51.094;7.030;2023-09-19T02:10:18;14.70;99.90
22623;DHT22;11478;51.094;7.030;2023-09-19T02:12:44;14.70;99.90
22623;DHT22;11478;51.094;7.030;2023-09-19T02:15:12;14.70;99.90
22623;DHT22;11478;51.094;7.030;2023-09-19T02:17:44;14.70;99.90
22623;DHT22;11478;51.094;7.030;2023-09-19T02:20:14;14.70;99.90
22623;DHT22;11478;51.094;7.030;2023-09-19T02:22:46;14.70;99.90
22623;DHT22;11478;51.094;7.030;2023-09-19T02:25:13;14.70;99.90
22623;DHT22;11478;51.094;7.030;2023-09-19T02:27:40;14.70;99.90
22623;DHT22;11478;51.094;7.030;2023-09-19T02:30:06;14.70;99.90
22623;DHT22;11478;51.094;7.030;2023-09-19T02:32:32;14.70;99.90
22623;DHT22;11478;51.094;7.030;2023-09-19T02:35:01;14.70;99.90
22623;DHT22;11478;51.094;7.030;2023-09-19T02:37:27;14.70;99.90
22623;DHT22;11478;51.094;7.030;2023-09-19T02:39:52;14.70;99.90
22623;DHT22;11478;51.094;7.030;2023-09-19T02:42:18;14.70;99.90
22623;DHT22;11478;51.094;7.030;2023-09-19T02:44:44;14.60;99.90
22623;DHT22;11478;51.094;7.030;2023-09-19T02:47:12;14.60;99.90
22623;DHT22;11478;51.094;7.030;2023-09-19T02:49:40;14.60;99.90
22623;DHT22;11478;51.094;7.030;2023-09-19T02:52:08;14.60;99.90
22623;DHT22;11478;51.094;7.030;2023-09-19T02:54:34;14.60;99.90
22623;DHT22;11478;51.094;7.030;2023-09-19T02:57:00;14.60;99.90
22623;DHT22;11478;51.094;7.030;2023-09-19T02:59:27;14.60;99.90
22623;DHT22;11478;51.094;7.030;2023-09-19T03:01:54;14.50;99.90
22623;DHT22;11478;51.094;7.030;2023-09-19T03:04:21;14.50;99.90
22623;DHT22;11478;51.094;7.030;2023-09-19T03:06:47;14.50;99.90
22623;DHT22;11478;51.094;7.030;2023-09-19T03:09:14;14.50;99.90
22623;DHT22;11478;51.094;7.030;2023-09-19T03:11:41;14.50;99.90
22623;DHT22;11478;51.094;7.030;2023-09-19T03:14:08;14.50;99.90
22623;DHT22;11478;51.094;7.030;2023-09-19T03:16:35;14.50;99.90
22623;DHT22;11478;51.094;7.030;2023-09-19T03:19:03;14.50;99.90
22623;DHT22;11478;51.094;7.030;2023-09-19T03:21:29;14.50;99.90
22623;DHT22;11478;51.094;7.030;2023-09-19T03:23:57;14.50;99.90
22623;DHT22;11478;51.094;7.030;2023-09-19T03:26:23;14.40;99.90
22623;DHT22;11478;51.094;7.030;2023-09-19T03:28:49;14.40;99.90
22623;DHT22;11478;51.094;7.030;2023-09-19T03:31:14;14.40;99.90
22623;DHT22;11478;51.094;7.030;2023-09-19T03:33:41;14.40;99.90
22623;DHT22;11478;51.094;7.030;2023-09-19T03:36:07;14.30;99.90
22623;DHT22;11478;51.094;7.030;2023-09-19T03:38:34;14.30;99.90
22623;DHT22;11478;51.094;7.030;2023-09-19T03:41:01;14.30;99.90
22623;DHT22;11478;51.094;7.030;2023-09-19T03:43:27;14.30;99.90
22623;DHT22;11478;51.094;7.030;2023-09-19T03:45:54;14.20;99.90
22623;DHT22;11478;51.094;7.030;2023-09-19T03:48:20;14.20;99.90
22623;DHT22;11478;51.094;7.030;2023-09-19T03:50:47;14.20;99.90
22623;DHT22;11478;51.094;7.030;2023-09-19T03:53:13;14.20;99.90
22623;DHT22;11478;51.094;7.030;2023-09-19T03:55:39;14.10;99.90
22623;DHT22;11478;51.094;7.030;2023-09-19T03:58:05;14.10;99.90
22623;DHT22;11478;51.094;7.030;2023-09-19T04:00:32;14.00;99.90
22623;DHT22;11478;51.094;7.030;2023-09-19T04:02:57;14.00;99.90
22623;DHT22;11478;51.094;7.030;2023-09-19T04:05:24;13.80;99.90
22623;DHT22;11478;51.094;7.030;2023-09-19T04:07:54;13.80;99.90
22623;DHT22;11478;51.094;7.030;2023-09-19T04:10:20;13.60;99.90
22623;DHT22;11478;51.094;7.030;2023-09-19T04:12:56;13.60;99.90
22623;DHT22;11478;51.094;7.030;2023-09-19T04:15:24;13.50;99.90
22623;DHT22;11478;51.094;7.030;2023-09-19T04:17:50;13.40;99.90
22623;DHT22;11478;51.094;7.030;2023-09-19T04:20:19;13.40;99.90
22623;DHT22;11478;51.094;7.030;2023-09-19T04:22:46;13.30;99.90
22623;DHT22;11478;51.094;7.030;2023-09-19T04:25:14;13.30;99.90
22623;DHT22;11478;51.094;7.030;2023-09-19T04:27:40;13.30;99.90
22623;DHT22;11478;51.094;7.030;2023-09-19T04:30:11;13.30;99.90
22623;DHT22;11478;51.094;7.030;2023-09-19T04:32:38;13.30;99.90
22623;DHT22;11478;51.094;7.030;2023-09-19T04:35:08;13.20;99.90
22623;DHT22;11478;51.094;7.030;2023-09-19T04:37:39;13.20;99.90
22623;DHT22;11478;51.094;7.030;2023-09-19T04:40:07;13.20;99.90
22623;DHT22;11478;51.094;7.030;2023-09-19T04:42:39;13.20;99.90
22623;DHT22;11478;51.094;7.030;2023-09-19T04:45:15;13.20;99.90
22623;DHT22;11478;51.094;7.030;2023-09-19T04:47:41;13.10;99.90
22623;DHT22;11478;51.094;7.030;2023-09-19T04:50:09;13.10;99.90
22623;DHT22;11478;51.094;7.030;2023-09-19T04:52:42;13.10;99.90
22623;DHT22;11478;51.094;7.030;2023-09-19T04:55:13;13.10;99.90
22623;DHT22;11478;51.094;7.030;2023-09-19T04:57:43;13.10;99.90
22623;DHT22;11478;51.094;7.030;2023-09-19T05:00:21;13.20;99.90
22623;DHT22;11478;51.094;7.030;2023-09-19T05:02:51;13.20;99.90
22623;DHT22;11478;51.094;7.030;2023-09-19T05:05:17;13.20;99.90
22623;DHT22;11478;51.094;7.030;2023-09-19T05:07:45;13.20;99.90
22623;DHT22;11478;51.094;7.030;2023-09-19T05:10:12;13.20;99.90
22623;DHT22;11478;51.094;7.030;2023-09-19T05:12:40;13.20;99.90
22623;DHT22;11478;51.094;7.030;2023-09-19T05:15:08;13.20;99.90
22623;DHT22;11478;51.094;7.030;2023-09-19T05:17:34;13.20;99.90
22623;DHT22;11478;51.094;7.030;2023-09-19T05:20:02;13.20;99.90
22623;DHT22;11478;51.094;7.030;2023-09-19T05:22:42;13.20;99.90
22623;DHT22;11478;51.094;7.030;2023-09-19T05:25:09;13.20;99.90
22623;DHT22;11478;51.094;7.030;2023-09-19T05:27:36;13.20;99.90
22623;DHT22;11478;51.094;7.030;2023-09-19T05:30:02;13.20;99.90
22623;DHT22;11478;51.094;7.030;2023-09-19T05:32:28;13.20;99.90
22623;DHT22;11478;51.094;7.030;2023-09-19T05:34:54;13.20;99.90
22623;DHT22;11478;51.094;7.030;2023-09-19T05:37:22;13.20;99.90
22623;DHT22;11478;51.094;7.030;2023-09-19T05:39:52;13.10;99.90
22623;DHT22;11478;51.094;7.030;2023-09-19T05:42:19;13.10;99.90
22623;DHT22;11478;51.094;7.030;2023-09-19T05:44:45;13.10;99.90
22623;DHT22;11478;51.094;7.030;2023-09-19T05:47:14;13.10;99.90
22623;DHT22;11478;51.094;7.030;2023-09-19T05:49:40;13.10;99.90
22623;DHT22;11478;51.094;7.030;2023-09-19T05:52:40;13.10;99.90
22623;DHT22;11478;51.094;7.030;2023-09-19T05:55:08;13.20;99.90
22623;DHT22;11478;51.094;7.030;2023-09-19T06:00:48;13.30;99.90
22623;DHT22;11478;51.094;7.030;2023-09-19T06:03:16;13.30;99.90
22623;DHT22;11478;51.094;7.030;2023-09-19T06:05:44;13.40;99.90
22623;DHT22;11478;51.094;7.030;2023-09-19T06:08:11;13.50;99.90
22623;DHT22;11478;51.094;7.030;2023-09-19T06:10:37;13.50;99.90
22623;DHT22;11478;51.094;7.030;2023-09-19T06:13:04;13.60;99.90
22623;DHT22;11478;51.094;7.030;2023-09-19T06:15:31;13.60;99.90
22623;DHT22;11478;51.094;7.030;2023-09-19T06:17:59;13.70;99.90
22623;DHT22;11478;51.094;7.030;2023-09-19T06:20:28;13.70;99.90
22623;DHT22;11478;51.094;7.030;2023-09-19T06:22:54;13.70;99.90
22623;DHT22;11478;51.094;7.030;2023-09-19T06:25:21;13.70;99.90
22623;DHT22;11478;51.094;7.030;2023-09-19T06:27:47;13.80;99.90
22623;DHT22;11478;51.094;7.030;2023-09-19T06:30:14;13.80;99.90
22623;DHT22;11478;51.094;7.030;2023-09-19T06:32:41;13.80;99.90
22623;DHT22;11478;51.094;7.030;2023-09-19T06:35:10;13.90;99.90
22623;DHT22;11478;51.094;7.030;2023-09-19T06:37:40;13.90;99.90
22623;DHT22;11478;51.094;7.030;2023-09-19T06:40:11;13.90;99.90
22623;DHT22;11478;51.094;7.030;2023-09-19T06:43:00;13.90;99.90
22623;DHT22;11478;51.094;7.030;2023-09-19T06:45:27;13.90;99.90
22623;DHT22;11478;51.094;7.030;2023-09-19T06:47:53;14.00;99.90
22623;DHT22;11478;51.094;7.030;2023-09-19T06:50:24;14.00;99.90
22623;DHT22;11478;51.094;7.030;2023-09-19T06:52:54;14.00;99.90
22623;DHT22;11478;51.094;7.030;2023-09-19T06:55:35;14.10;99.90
22623;DHT22;11478;51.094;7.030;2023-09-19T06:58:02;14.10;99.90
22623;DHT22;11478;51.094;7.030;2023-09-19T07:00:29;14.10;99.90
22623;DHT22;11478;51.094;7.030;2023-09-19T07:02:58;14.20;99.90
22623;DHT22;11478;51.094;7.030;2023-09-19T07:05:35;14.20;99.90
22623;DHT22;11478;51.094;7.030;2023-09-19T07:08:11;14.20;99.90
22623;DHT22;11478;51.094;7.030;2023-09-19T07:10:40;14.30;99.90
22623;DHT22;11478;51.094;7.030;2023-09-19T07:13:07;14.30;99.90
22623;DHT22;11478;51.094;7.030;2023-09-19T07:15:39;14.40;99.90
22623;DHT22;11478;51.094;7.030;2023-09-19T07:18:07;14.40;99.90
22623;DHT22;11478;51.094;7.030;2023-09-19T07:20:39;14.40;99.90
22623;DHT22;11478;51.094;7.030;2023-09-19T07:23:05;14.40;99.90
22623;DHT22;11478;51.094;7.030;2023-09-19T07:25:36;14.50;99.90
22623;DHT22;11478;51.094;7.030;2023-09-19T07:28:02;14.60;99.90
22623;DHT22;11478;51.094;7.030;2023-09-19T07:30:28;14.60;99.90
22623;DHT22;11478;51.094;7.030;2023-09-19T07:32:54;14.60;99.90
22623;DHT22;11478;51.094;7.030;2023-09-19T07:35:25;14.70;99.90
22623;DHT22;11478;51.094;7.030;2023-09-19T07:37:51;14.70;99.90
22623;DHT22;11478;51.094;7.030;2023-09-19T07:40:24;14.70;99.90
22623;DHT22;11478;51.094;7.030;2023-09-19T07:42:52;14.80;99.90
22623;DHT22;11478;51.094;7.030;2023-09-19T07:45:19;14.80;99.90
22623;DHT22;11478;51.094;7.030;2023-09-19T07:47:49;14.90;99.90
22623;DHT22;11478;51.094;7.030;2023-09-19T07:50:17;15.00;99.90
22623;DHT22;11478;51.094;7.030;2023-09-19T07:52:48;15.10;99.90
22623;DHT22;11478;51.094;7.030;2023-09-19T07:55:16;15.10;99.90
22623;DHT22;11478;51.094;7.030;2023-09-19T07:57:44;15.20;99.90
22623;DHT22;11478;51.094;7.030;2023-09-19T08:00:10;15.20;99.90
22623;DHT22;11478;51.094;7.030;2023-09-19T08:02:43;15.30;99.90
22623;DHT22;11478;51.094;7.030;2023-09-19T08:05:10;15.30;99.90
22623;DHT22;11478;51.094;7.030;2023-09-19T08:07:47;15.40;99.90
22623;DHT22;11478;51.094;7.030;2023-09-19T08:10:16;15.40;99.90
22623;DHT22;11478;51.094;7.030;2023-09-19T08:13:19;15.50;99.90
22623;DHT22;11478;51.094;7.030;2023-09-19T08:15:47;15.50;99.90
22623;DHT22;11478;51.094;7.030;2023-09-19T08:18:19;15.60;99.90
22623;DHT22;11478;51.094;7.030;2023-09-19T08:20:55;15.60;99.90
22623;DHT22;11478;51.094;7.030;2023-09-19T08:23:21;15.70;99.90
22623;DHT22;11478;51.094;7.030;2023-09-19T08:25:47;15.70;99.90
22623;DHT22;11478;51.094;7.030;2023-09-19T08:28:14;15.70;99.90
22623;DHT22;11478;51.094;7.030;2023-09-19T08:30:45;15.80;99.90
22623;DHT22;11478;51.094;7.030;2023-09-19T08:33:11;15.80;99.90
22623;DHT22;11478;51.094;7.030;2023-09-19T08:35:38;15.80;99.90
22623;DHT22;11478;51.094;7.030;2023-09-19T08:38:05;15.80;99.90
22623;DHT22;11478;51.094;7.030;2023-09-19T08:40:32;15.90;99.90
22623;DHT22;11478;51.094;7.030;2023-09-19T08:42:59;15.90;99.90
22623;DHT22;11478;51.094;7.030;2023-09-19T08:45:26;15.90;99.90
22623;DHT22;11478;51.094;7.030;2023-09-19T08:51:10;16.10;99.90
22623;DHT22;11478;51.094;7.030;2023-09-19T08:56:49;16.30;99.90
22623;DHT22;11478;51.094;7.030;2023-09-19T08:59:16;16.30;99.90
22623;DHT22;11478;51.094;7.030;2023-09-19T09:01:49;16.40;99.90
22623;DHT22;11478;51.094;7.030;2023-09-19T09:04:22;16.40;99.90
22623;DHT22;11478;51.094;7.030;2023-09-19T09:06:50;16.40;99.90
22623;DHT22;11478;51.094;7.030;2023-09-19T09:09:20;16.40;99.90
22623;DHT22;11478;51.094;7.030;2023-09-19T09:11:48;16.40;99.90
22623;DHT22;11478;51.094;7.030;2023-09-19T09:14:17;16.50;99.90
22623;DHT22;11478;51.094;7.030;2023-09-19T09:16:44;16.50;99.90
22623;DHT22;11478;51.094;7.030;2023-09-19T09:19:18;16.60;99.90
22623;DHT22;11478;51.094;7.030;2023-09-19T09:22:07;16.60;99.90
22623;DHT22;11478;51.094;7.030;2023-09-19T09:24:33;16.70;99.90
22623;DHT22;11478;51.094;7.030;2023-09-19T09:27:04;16.80;99.90
22623;DHT22;11478;51.094;7.030;2023-09-19T09:29:44;16.90;99.90
22623;DHT22;11478;51.094;7.030;2023-09-19T09:32:32;17.00;99.90
22623;DHT22;11478;51.094;7.030;2023-09-19T09:35:11;17.00;99.90
22623;DHT22;11478;51.094;7.030;2023-09-19T09:37:43;17.00;99.90
22623;DHT22;11478;51.094;7.030;2023-09-19T09:40:45;17.10;99.90
22623;DHT22;11478;51.094;7.030;2023-09-19T09:43:36;17.30;99.90
22623;DHT22;11478;51.094;7.030;2023-09-19T09:46:20;17.30;99.90
22623;DHT22;11478;51.094;7.030;2023-09-19T09:48:59;17.40;99.90
22623;DHT22;11478;51.094;7.030;2023-09-19T09:52:06;17.50;99.90
22623;DHT22;11478;51.094;7.030;2023-09-19T09:54:37;17.50;99.90
22623;DHT22;11478;51.094;7.030;2023-09-19T09:57:10;17.60;99.90
22623;DHT22;11478;51.094;7.030;2023-09-19T10:02:26;17.80;99.90
22623;DHT22;11478;51.094;7.030;2023-09-19T10:04:59;17.80;99.90
22623;DHT22;11478;51.094;7.030;2023-09-19T10:08:11;18.00;99.90
22623;DHT22;11478;51.094;7.030;2023-09-19T10:10:44;18.10;99.90
22623;DHT22;11478;51.094;7.030;2023-09-19T10:13:16;18.20;99.90
22623;DHT22;11478;51.094;7.030;2023-09-19T10:15:47;18.20;99.90
22623;DHT22;11478;51.094;7.030;2023-09-19T10:18:27;18.20;99.90
22623;DHT22;11478;51.094;7.030;2023-09-19T10:20:56;18.20;99.90
22623;DHT22;11478;51.094;7.030;2023-09-19T10:23:27;18.20;99.90
22623;DHT22;11478;51.094;7.030;2023-09-19T10:25:57;18.10;99.90
22623;DHT22;11478;51.094;7.030;2023-09-19T10:28:31;18.10;99.90
22623;DHT22;11478;51.094;7.030;2023-09-19T10:31:01;18.10;99.90
22623;DHT22;11478;51.094;7.030;2023-09-19T10:33:36;18.00;99.90
22623;DHT22;11478;51.094;7.030;2023-09-19T10:36:07;18.00;99.90
22623;DHT22;11478;51.094;7.030;2023-09-19T10:38:37;17.90;99.90
22623;DHT22;11478;51.094;7.030;2023-09-19T10:41:14;17.90;99.90
22623;DHT22;11478;51.094;7.030;2023-09-19T10:43:43;17.90;99.90
22623;DHT22;11478;51.094;7.030;2023-09-19T10:46:15;17.90;99.90
22623;DHT22;11478;51.094;7.030;2023-09-19T10:48:42;17.80;99.90
22623;DHT22;11478;51.094;7.030;2023-09-19T10:51:21;17.90;99.90
22623;DHT22;11478;51.094;7.030;2023-09-19T10:53:51;17.90;99.90
22623;DHT22;11478;51.094;7.030;2023-09-19T10:56:25;17.90;99.90
22623;DHT22;11478;51.094;7.030;2023-09-19T11:01:52;18.10;99.90
22623;DHT22;11478;51.094;7.030;2023-09-19T11:04:30;18.20;99.90
22623;DHT22;11478;51.094;7.030;2023-09-19T11:07:03;18.20;99.90
22623;DHT22;11478;51.094;7.030;2023-09-19T11:10:02;18.30;99.90
22623;DHT22;11478;51.094;7.030;2023-09-19T11:15:02;18.30;99.90
22623;DHT22;11478;51.094;7.030;2023-09-19T11:17:38;18.30;99.90
22623;DHT22;11478;51.094;7.030;2023-09-19T11:30:47;18.40;99.90
22623;DHT22;11478;51.094;7.030;2023-09-19T11:33:33;18.40;99.90
22623;DHT22;11478;51.094;7.030;2023-09-19T11:49:31;18.80;99.90
22623;DHT22;11478;51.094;7.030;2023-09-19T11:51:58;18.80;99.90
22623;DHT22;11478;51.094;7.030;2023-09-19T11:54:31;18.80;99.90
22623;DHT22;11478;51.094;7.030;2023-09-19T11:57:01;18.90;99.90
22623;DHT22;11478;51.094;7.030;2023-09-19T11:59:29;18.80;99.90
22623;DHT22;11478;51.094;7.030;2023-09-19T12:02:07;18.80;99.90
22623;DHT22;11478;51.094;7.030;2023-09-19T12:04:40;18.80;99.90
22623;DHT22;11478;51.094;7.030;2023-09-19T12:07:08;18.90;99.90
22623;DHT22;11478;51.094;7.030;2023-09-19T12:09:42;18.90;99.90
22623;DHT22;11478;51.094;7.030;2023-09-19T12:12:25;19.00;99.90
22623;DHT22;11478;51.094;7.030;2023-09-19T12:14:53;19.10;99.90
22623;DHT22;11478;51.094;7.030;2023-09-19T12:17:20;19.20;99.90
22623;DHT22;11478;51.094;7.030;2023-09-19T12:19:56;19.20;99.90
22623;DHT22;11478;51.094;7.030;2023-09-19T12:22:24;19.30;99.90
22623;DHT22;11478;51.094;7.030;2023-09-19T12:24:50;19.30;99.90
22623;DHT22;11478;51.094;7.030;2023-09-19T12:27:21;19.40;99.90
22623;DHT22;11478;51.094;7.030;2023-09-19T12:29:50;19.40;99.90
22623;DHT22;11478;51.094;7.030;2023-09-19T12:32:34;19.50;99.90
22623;DHT22;11478;51.094;7.030;2023-09-19T12:35:10;19.60;99.90
22623;DHT22;11478;51.094;7.030;2023-09-19T12:37:37;19.70;99.90
22623;DHT22;11478;51.094;7.030;2023-09-19T12:40:12;19.70;99.90
22623;DHT22;11478;51.094;7.030;2023-09-19T12:42:50;19.70;99.90
22623;DHT22;11478;51.094;7.030;2023-09-19T12:45:19;19.70;99.90
22623;DHT22;11478;51.094;7.030;2023-09-19T12:51:43;19.70;99.90
22623;DHT22;11478;51.094;7.030;2023-09-19T12:54:19;19.60;99.90
22623;DHT22;11478;51.094;7.030;2023-09-19T12:56:47;19.50;99.90
22623;DHT22;11478;51.094;7.030;2023-09-19T12:59:15;19.60;99.90
22623;DHT22;11478;51.094;7.030;2023-09-19T13:01:42;19.50;99.90
22623;DHT22;11478;51.094;7.030;2023-09-19T13:04:18;19.40;99.90
22623;DHT22;11478;51.094;7.030;2023-09-19T13:06:46;19.50;99.90
22623;DHT22;11478;51.094;7.030;2023-09-19T13:09:15;19.50;99.90
22623;DHT22;11478;51.094;7.030;2023-09-19T13:11:42;19.40;99.90
22623;DHT22;11478;51.094;7.030;2023-09-19T13:14:21;19.40;99.90
22623;DHT22;11478;51.094;7.030;2023-09-19T13:19:42;19.50;99.90
22623;DHT22;11478;51.094;7.030;2023-09-19T13:22:45;19.70;99.90
22623;DHT22;11478;51.094;7.030;2023-09-19T13:25:21;19.80;99.90
22623;DHT22;11478;51.094;7.030;2023-09-19T13:27:55;19.80;99.90
22623;DHT22;11478;51.094;7.030;2023-09-19T13:30:31;19.80;99.90
22623;DHT22;11478;51.094;7.030;2023-09-19T13:33:10;19.80;99.90
22623;DHT22;11478;51.094;7.030;2023-09-19T13:35:38;19.90;99.90
22623;DHT22;11478;51.094;7.030;2023-09-19T13:38:06;19.90;99.90
22623;DHT22;11478;51.094;7.030;2023-09-19T13:40:38;19.90;99.90
22623;DHT22;11478;51.094;7.030;2023-09-19T13:43:09;19.90;99.90
22623;DHT22;11478;51.094;7.030;2023-09-19T13:45:37;19.90;99.90
22623;DHT22;11478;51.094;7.030;2023-09-19T13:48:08;20.00;99.90
22623;DHT22;11478;51.094;7.030;2023-09-19T13:50:50;19.90;99.90
22623;DHT22;11478;51.094;7.030;2023-09-19T13:53:18;19.90;99.90
22623;DHT22;11478;51.094;7.030;2023-09-19T13:55:45;19.80;99.90
22623;DHT22;11478;51.094;7.030;2023-09-19T13:58:11;19.80;99.90
22623;DHT22;11478;51.094;7.030;2023-09-19T14:00:42;19.80;99.90
22623;DHT22;11478;51.094;7.030;2023-09-19T14:03:16;19.80;99.90
22623;DHT22;11478;51.094;7.030;2023-09-19T14:05:55;19.70;99.90
22623;DHT22;11478;51.094;7.030;2023-09-19T14:08:21;19.70;99.90
22623;DHT22;11478;51.094;7.030;2023-09-19T14:10:49;19.70;99.90
22623;DHT22;11478;51.094;7.030;2023-09-19T14:13:15;19.60;99.90
22623;DHT22;11478;51.094;7.030;2023-09-19T14:15:42;19.50;99.90
22623;DHT22;11478;51.094;7.030;2023-09-19T14:18:10;19.40;99.90
22623;DHT22;11478;51.094;7.030;2023-09-19T14:20:41;19.30;99.90
22623;DHT22;11478;51.094;7.030;2023-09-19T14:23:13;19.20;99.90
22623;DHT22;11478;51.094;7.030;2023-09-19T14:25:39;19.10;99.90
22623;DHT22;11478;51.094;7.030;2023-09-19T14:28:09;19.10;99.90
22623;DHT22;11478;51.094;7.030;2023-09-19T14:30:35;19.10;99.90
22623;DHT22;11478;51.094;7.030;2023-09-19T14:33:04;19.00;99.90
22623;DHT22;11478;51.094;7.030;2023-09-19T14:35:30;19.10;99.90
22623;DHT22;11478;51.094;7.030;2023-09-19T14:37:58;19.00;99.90
22623;DHT22;11478;51.094;7.030;2023-09-19T14:40:24;19.00;99.90
22623;DHT22;11478;51.094;7.030;2023-09-19T14:42:51;19.00;99.90
22623;DHT22;11478;51.094;7.030;2023-09-19T14:45:17;18.90;99.90
22623;DHT22;11478;51.094;7.030;2023-09-19T14:47:46;18.90;99.90
22623;DHT22;11478;51.094;7.030;2023-09-19T14:50:13;18.90;99.90
22623;DHT22;11478;51.094;7.030;2023-09-19T14:52:43;18.80;99.90
22623;DHT22;11478;51.094;7.030;2023-09-19T14:55:15;18.90;99.90
22623;DHT22;11478;51.094;7.030;2023-09-19T14:57:44;19.00;99.90
22623;DHT22;11478;51.094;7.030;2023-09-19T15:00:14;19.10;99.90
22623;DHT22;11478;51.094;7.030;2023-09-19T15:02:42;19.20;99.90
22623;DHT22;11478;51.094;7.030;2023-09-19T15:05:11;19.40;99.90
22623;DHT22;11478;51.094;7.030;2023-09-19T15:07:37;19.40;99.90
22623;DHT22;11478;51.094;7.030;2023-09-19T15:10:06;19.30;99.90
22623;DHT22;11478;51.094;7.030;2023-09-19T15:12:36;19.20;99.90
22623;DHT22;11478;51.094;7.030;2023-09-19T15:15:04;19.10;99.90
22623;DHT22;11478;51.094;7.030;2023-09-19T15:17:35;19.00;99.90
22623;DHT22;11478;51.094;7.030;2023-09-19T15:20:02;19.00;99.90
22623;DHT22;11478;51.094;7.030;2023-09-19T15:22:33;18.90;99.90
22623;DHT22;11478;51.094;7.030;2023-09-19T15:25:01;18.80;99.90
22623;DHT22;11478;51.094;7.030;2023-09-19T15:27:28;18.70;99.90
22623;DHT22;11478;51.094;7.030;2023-09-19T15:29:57;18.60;99.90
22623;DHT22;11478;51.094;7.030;2023-09-19T15:32:43;18.60;99.90
22623;DHT22;11478;51.094;7.030;2023-09-19T15:35:09;18.60;99.90
22623;DHT22;11478;51.094;7.030;2023-09-19T15:37:39;18.60;99.90
22623;DHT22;11478;51.094;7.030;2023-09-19T15:40:19;18.60;99.90
22623;DHT22;11478;51.094;7.030;2023-09-19T15:42:50;18.60;99.90
22623;DHT22;11478;51.094;7.030;2023-09-19T15:45:28;18.60;99.90
22623;DHT22;11478;51.094;7.030;2023-09-19T15:48:05;18.60;99.90
22623;DHT22;11478;51.094;7.030;2023-09-19T15:50:46;18.60;99.90
22623;DHT22;11478;51.094;7.030;2023-09-19T15:53:21;18.40;99.90
22623;DHT22;11478;51.094;7.030;2023-09-19T15:55:57;18.30;99.90
22623;DHT22;11478;51.094;7.030;2023-09-19T15:58:59;18.20;99.90
22623;DHT22;11478;51.094;7.030;2023-09-19T16:01:34;18.10;99.90
22623;DHT22;11478;51.094;7.030;2023-09-19T16:04:14;18.00;99.90
22623;DHT22;11478;51.094;7.030;2023-09-19T16:06:43;18.00;99.90
22623;DHT22;11478;51.094;7.030;2023-09-19T16:09:09;18.00;99.90
22623;DHT22;11478;51.094;7.030;2023-09-19T16:11:42;17.90;99.90
22623;DHT22;11478;51.094;7.030;2023-09-19T16:14:09;17.90;99.90
22623;DHT22;11478;51.094;7.030;2023-09-19T16:16:40;17.90;99.90
22623;DHT22;11478;51.094;7.030;2023-09-19T16:19:06;17.90;99.90
22623;DHT22;11478;51.094;7.030;2023-09-19T16:21:38;17.90;99.90
22623;DHT22;11478;51.094;7.030;2023-09-19T16:24:06;17.80;99.90
22623;DHT22;11478;51.094;7.030;2023-09-19T16:26:33;17.80;99.90
22623;DHT22;11478;51.094;7.030;2023-09-19T16:28:59;17.70;99.90
22623;DHT22;11478;51.094;7.030;2023-09-19T16:31:31;17.70;99.90
22623;DHT22;11478;51.094;7.030;2023-09-19T16:33:58;17.60;99.90
22623;DHT22;11478;51.094;7.030;2023-09-19T16:36:26;17.60;99.90
22623;DHT22;11478;51.094;7.030;2023-09-19T16:38:53;17.50;99.90
22623;DHT22;11478;51.094;7.030;2023-09-19T16:41:21;17.50;99.90
22623;DHT22;11478;51.094;7.030;2023-09-19T16:43:49;17.50;99.90
22623;DHT22;11478;51.094;7.030;2023-09-19T16:46:16;17.40;99.90
22623;DHT22;11478;51.094;7.030;2023-09-19T16:48:44;17.40;99.90
22623;DHT22;11478;51.094;7.030;2023-09-19T16:51:16;17.40;99.90
22623;DHT22;11478;51.094;7.030;2023-09-19T16:53:43;17.40;99.90
22623;DHT22;11478;51.094;7.030;2023-09-19T16:56:14;17.40;99.90
22623;DHT22;11478;51.094;7.030;2023-09-19T16:58:44;17.50;99.90
22623;DHT22;11478;51.094;7.030;2023-09-19T17:01:14;17.50;99.90
22623;DHT22;11478;51.094;7.030;2023-09-19T17:03:43;17.50;99.90